Date,TemperatureHighF,TemperatureAvgF,TemperatureLowF,DewpointHighF,DewpointAvgF,DewpointLowF,HumidityHigh,HumidityAvg,HumidityLow,PressureMaxIn,PressureMinIn,WindSpeedMaxMPH,WindSpeedAvgMPH,GustSpeedMaxMPH,PrecipitationSumIn
2013-5-1,70,53,32,46,38,29,93,61,27,30.39,30.25,8,1,12,0.00
2013-5-2,79,58,36,49,42,34,97,60,27,30.38,30.20,7,1,13,0.00
2013-5-3,70,58,46,44,40,34,86,53,33,30.37,30.25,8,2,13,0.00
2013-5-4,73,54,38,51,43,37,97,70,35,30.29,30.13,9,1,12,0.00
2013-5-5,69,50,34,46,40,32,97,72,36,30.21,30.12,8,1,11,0.00
2013-5-6,73,55,38,53,46,36,95,75,50,30.19,30.05,7,1,10,0.00
2013-5-7,75,60,42,58,51,41,98,76,47,30.09,29.99,10,1,10,0.00
2013-5-8,66,59,54,64,58,52,98,95,88,30.04,29.90,9,1,16,0.50
2013-5-9,64,57,52,62,56,52,100,96,87,29.93,29.79,5,0,8,0.69
2013-5-10,80,64,49,66,56,49,99,77,44,29.90,29.80,7,1,9,0.01
2013-5-11,65,61,58,63,59,54,99,95,82,29.80,29.60,5,1,9,0.29
2013-5-12,69,59,47,60,48,29,99,72,33,29.80,29.54,5,0,9,0.06
2013-5-13,58,48,35,38,32,29,86,57,38,29.99,29.80,8,1,11,0.00
2013-5-14,61,46,30,38,32,28,96,62,33,30.01,29.91,5,1,10,0.00
2013-5-15,63,48,31,53,42,29,96,81,53,29.99,29.59,7,1,15,0.03
2013-5-16,84,65,44,61,49,43,99,64,27,29.73,29.59,5,1,11,0.00
2013-5-17,71,58,46,51,45,41,95,66,37,30.12,29.73,6,1,11,0.00
2013-5-18,70,55,40,54,46,39,97,75,46,30.22,30.12,5,1,8,0.00
2013-5-19,57,54,50,56,53,47,98,95,90,30.25,30.09,4,0,7,0.14
2013-5-20,83,66,55,71,62,54,99,88,63,30.09,29.85,4,0,5,0.01
2013-5-21,90,74,59,74,66,59,99,81,54,29.88,29.72,5,1,14,0.00
2013-5-22,77,66,56,71,63,54,98,91,79,29.85,29.74,4,1,12,0.12
2013-5-23,71,66,64,68,65,63,98,96,91,29.80,29.75,4,1,8,0.01
2013-5-24,48,46,44,47,45,44,97,97,97,29.81,29.75,4,1,8,0.38
2013-5-25,47,44,42,46,43,41,97,96,90,29.83,29.74,7,1,14,0.82
2013-5-26,62,50,41,49,42,39,95,75,49,30.08,29.78,8,1,21,0.01
2013-5-27,76,56,35,54,42,34,98,66,32,30.13,30.01,6,0,11,0.00
2013-5-28,72,56,42,57,49,41,97,81,44,30.13,30.07,3,0,7,0.14